createdAt,value
2022-09-15T00:00:28.547Z,79.00
2022-09-15T00:02:55.281Z,79.05
2022-09-15T00:05:22.185Z,79.36
2022-09-15T00:07:48.722Z,79.77
2022-09-15T00:10:15.384Z,79.92
2022-09-15T00:12:41.913Z,80.24
2022-09-15T00:15:09.040Z,79.86
2022-09-15T00:17:35.658Z,79.75
2022-09-15T00:20:02.715Z,80.25
2022-09-15T00:22:29.339Z,80.43
2022-09-15T00:24:55.933Z,80.40
2022-09-15T00:27:22.482Z,80.31
2022-09-15T00:29:49.004Z,80.43
2022-09-15T00:32:15.548Z,80.07
2022-09-15T00:34:42.151Z,80.50
2022-09-15T00:37:08.723Z,80.74
2022-09-15T00:39:35.286Z,80.82
2022-09-15T00:42:04.367Z,80.70
2022-09-15T00:44:37.018Z,80.77
2022-09-15T00:47:18.744Z,80.91
2022-09-15T00:49:49.202Z,81.07
2022-09-15T00:52:27.926Z,80.54
2022-09-15T00:55:00.857Z,80.63
2022-09-15T00:57:35.607Z,80.96
2022-09-15T01:00:07.663Z,80.99
2022-09-15T01:02:36.138Z,81.23
2022-09-15T01:05:07.577Z,81.18
2022-09-15T01:07:37.446Z,81.26
2022-09-15T01:10:10.125Z,81.21
2022-09-15T01:12:36.801Z,80.95
2022-09-15T01:15:03.806Z,81.07
2022-09-15T01:18:05.213Z,80.98
2022-09-15T01:20:57.884Z,81.08
2022-09-15T01:23:43.108Z,81.02
2022-09-15T01:26:47.266Z,81.23
2022-09-15T01:29:26.973Z,81.73
2022-09-15T01:32:20.516Z,81.94
2022-09-15T01:35:00.929Z,81.27
2022-09-15T01:37:33.462Z,81.96
2022-09-15T01:40:01.905Z,82.10
2022-09-15T01:42:31.683Z,81.58
2022-09-15T01:45:03.669Z,81.63
2022-09-15T01:47:30.798Z,80.95
2022-09-15T01:50:05.843Z,81.09
2022-09-15T01:52:33.503Z,80.65
2022-09-15T01:55:07.824Z,80.76
2022-09-15T01:57:34.431Z,81.10
2022-09-15T02:00:01.106Z,80.88
2022-09-15T02:02:36.293Z,81.13
2022-09-15T02:05:11.408Z,81.36
2022-09-15T02:07:44.976Z,81.27
2022-09-15T02:10:19.488Z,81.59
2022-09-15T02:12:56.246Z,82.07
2022-09-15T02:15:33.413Z,81.55
2022-09-15T02:18:02.588Z,81.24
2022-09-15T02:20:42.748Z,81.85
2022-09-15T02:23:21.652Z,81.59
2022-09-15T02:25:53.437Z,82.38
2022-09-15T02:28:26.845Z,82.37
2022-09-15T02:30:57.253Z,81.98
2022-09-15T02:33:29.942Z,82.15
2022-09-15T02:35:56.648Z,82.11
2022-09-15T02:38:23.695Z,82.30
2022-09-15T02:40:51.462Z,82.15
2022-09-15T02:43:18.791Z,82.04
2022-09-15T02:45:45.959Z,81.88
2022-09-15T02:48:13.131Z,82.15
2022-09-15T02:50:40.066Z,82.09
2022-09-15T02:53:07.638Z,81.84
2022-09-15T02:55:34.579Z,81.97
2022-09-15T02:58:01.188Z,81.88
2022-09-15T03:00:28.550Z,81.75
2022-09-15T03:02:56.313Z,81.62
2022-09-15T03:05:27.672Z,81.84
2022-09-15T03:07:55.038Z,81.72
2022-09-15T03:10:21.916Z,81.96
2022-09-15T03:12:51.683Z,81.61
2022-09-15T03:15:21.159Z,81.79
2022-09-15T03:17:48.480Z,81.50
2022-09-15T03:20:20.283Z,82.01
2022-09-15T03:22:47.534Z,81.62
2022-09-15T03:25:14.138Z,81.19
2022-09-15T03:27:41.892Z,81.53
2022-09-15T03:30:09.903Z,81.52
2022-09-15T03:32:37.026Z,81.55
2022-09-15T03:35:05.003Z,81.63
2022-09-15T03:37:31.487Z,81.40
2022-09-15T03:39:58.322Z,80.95
2022-09-15T03:42:24.979Z,81.36
2022-09-15T03:44:51.511Z,81.41
2022-09-15T03:47:18.142Z,81.23
2022-09-15T03:49:44.727Z,81.22
2022-09-15T03:52:12.272Z,81.30
2022-09-15T03:54:38.773Z,81.58
2022-09-15T03:57:05.406Z,81.68
2022-09-15T03:59:32.002Z,81.75
2022-09-15T04:01:58.680Z,82.01
2022-09-15T04:04:25.266Z,81.73
2022-09-15T04:06:51.812Z,80.34
2022-09-15T04:09:20.327Z,79.95
2022-09-15T04:11:47.623Z,80.05
2022-09-15T04:14:14.214Z,81.18
2022-09-15T04:16:40.846Z,81.20
2022-09-15T04:19:07.598Z,81.07
2022-09-15T04:21:34.279Z,80.78
2022-09-15T04:24:01.049Z,80.45
2022-09-15T04:26:31.753Z,80.60
2022-09-15T04:29:03.617Z,80.80
2022-09-15T04:31:31.491Z,79.32
2022-09-15T04:33:58.247Z,79.53
2022-09-15T04:36:27.534Z,79.49
2022-09-15T04:38:54.157Z,78.97
2022-09-15T04:41:21.331Z,79.26
2022-09-15T04:43:48.193Z,79.37
2022-09-15T04:46:15.348Z,79.43
2022-09-15T04:48:42.077Z,78.94
2022-09-15T04:51:12.157Z,79.39
2022-09-15T04:53:39.090Z,78.98
2022-09-15T04:56:10.205Z,78.21
2022-09-15T04:58:38.524Z,78.31
2022-09-15T05:01:10.704Z,78.56
2022-09-15T05:03:38.198Z,78.62
2022-09-15T05:06:07.516Z,77.87
2022-09-15T05:08:34.058Z,78.25
2022-09-15T05:11:02.446Z,77.58
2022-09-15T05:13:29.116Z,77.57
2022-09-15T05:15:55.755Z,77.58
2022-09-15T05:18:22.436Z,77.35
2022-09-15T05:20:48.988Z,77.35
2022-09-15T05:23:15.617Z,76.74
2022-09-15T05:25:42.136Z,76.69
2022-09-15T05:28:08.674Z,76.54
2022-09-15T05:30:39.613Z,76.13
2022-09-15T05:33:08.007Z,76.40
2022-09-15T05:35:34.535Z,76.34
2022-09-15T05:38:01.039Z,75.76
2022-09-15T05:40:27.549Z,75.54
2022-09-15T05:42:54.026Z,75.50
2022-09-15T05:45:20.531Z,75.55
2022-09-15T05:47:47.078Z,75.08
2022-09-15T05:50:14.754Z,74.61
2022-09-15T05:52:41.248Z,74.67
2022-09-15T05:55:08.177Z,74.51
2022-09-15T05:57:34.712Z,74.71
2022-09-15T06:00:01.464Z,74.75
2022-09-15T06:02:28.014Z,74.69
2022-09-15T06:04:54.824Z,74.50
2022-09-15T06:07:21.297Z,73.89
2022-09-15T06:09:47.783Z,73.80
2022-09-15T06:12:14.369Z,73.73
2022-09-15T06:14:43.360Z,73.96
2022-09-15T06:17:09.893Z,73.59
2022-09-15T06:19:36.473Z,73.71
2022-09-15T06:22:03.012Z,74.28
2022-09-15T06:24:29.556Z,73.65
2022-09-15T06:26:56.038Z,73.62
2022-09-15T06:29:22.777Z,73.40
2022-09-15T06:31:49.340Z,73.17
2022-09-15T06:34:15.951Z,72.69
2022-09-15T06:36:42.493Z,73.16
2022-09-15T06:39:09.170Z,74.17
2022-09-15T06:42:00.759Z,74.34
2022-09-15T06:44:22.335Z,75.03
2022-09-15T06:46:49.309Z,74.27
2022-09-15T06:49:16.045Z,75.42
2022-09-15T06:51:42.585Z,74.36
2022-09-15T06:54:09.057Z,74.18
2022-09-15T06:56:38.123Z,72.99
2022-09-15T06:59:04.723Z,73.29
2022-09-15T07:01:32.289Z,73.33
2022-09-15T07:04:00.964Z,72.42
2022-09-15T07:06:29.305Z,72.02
2022-09-15T07:08:56.666Z,71.71
2022-09-15T07:11:23.104Z,71.95
2022-09-15T07:13:49.548Z,71.65
2022-09-15T07:16:18.807Z,70.63
2022-09-15T07:18:48.367Z,70.39
2022-09-15T07:21:18.353Z,70.93
2022-09-15T07:23:44.971Z,71.03
2022-09-15T07:26:12.842Z,72.23
2022-09-15T07:28:42.149Z,71.94
2022-09-15T07:31:10.818Z,72.21
2022-09-15T07:33:37.548Z,71.87
2022-09-15T07:36:06.615Z,72.16
2022-09-15T07:38:34.359Z,71.68
2022-09-15T07:41:05.501Z,71.91
2022-09-15T07:43:32.875Z,71.15
2022-09-15T07:46:00.834Z,70.01
2022-09-15T07:48:27.952Z,70.13
2022-09-15T07:50:54.827Z,70.30
2022-09-15T07:53:24.129Z,69.50
2022-09-15T07:55:54.819Z,69.20
2022-09-15T07:58:22.452Z,70.05
2022-09-15T08:00:49.134Z,70.18
2022-09-15T08:03:16.298Z,69.46
2022-09-15T08:05:45.615Z,69.46
2022-09-15T08:08:13.008Z,69.38
2022-09-15T08:10:41.165Z,68.98
2022-09-15T08:13:08.222Z,69.03
2022-09-15T08:15:37.474Z,68.43
2022-09-15T08:18:05.308Z,68.23
2022-09-15T08:20:32.659Z,69.10
2022-09-15T08:22:59.237Z,68.73
2022-09-15T08:25:25.858Z,69.06
2022-09-15T08:27:54.093Z,68.66
2022-09-15T08:30:21.340Z,68.58
2022-09-15T08:32:48.337Z,67.64
2022-09-15T08:35:16.024Z,66.31
2022-09-15T08:37:42.717Z,66.15
2022-09-15T08:40:18.346Z,66.16
2022-09-15T08:42:48.102Z,66.24
2022-09-15T08:45:21.683Z,65.67
2022-09-15T08:47:51.684Z,66.34
2022-09-15T08:50:31.258Z,66.05
2022-09-15T08:53:09.855Z,65.98
2022-09-15T08:55:50.547Z,65.24
2022-09-15T08:58:58.763Z,65.70
2022-09-15T09:01:48.030Z,65.70
2022-09-15T09:04:43.157Z,65.97
2022-09-15T09:07:20.606Z,65.88
2022-09-15T09:09:56.008Z,67.13
2022-09-15T09:12:32.040Z,66.18
2022-09-15T09:15:05.192Z,66.87
2022-09-15T09:18:07.387Z,65.85
2022-09-15T09:20:41.594Z,64.75
2022-09-15T09:23:14.512Z,65.52
2022-09-15T09:25:43.463Z,67.41
2022-09-15T09:28:32.536Z,68.15
2022-09-15T09:31:08.299Z,68.12
2022-09-15T09:33:47.595Z,70.46
2022-09-15T09:36:14.726Z,68.35
2022-09-15T09:38:46.296Z,69.18
2022-09-15T09:41:17.036Z,69.15
2022-09-15T09:43:46.325Z,69.04
2022-09-15T09:46:16.413Z,68.89
2022-09-15T09:48:54.347Z,69.68
2022-09-15T09:51:48.320Z,68.51
2022-09-15T09:54:17.588Z,68.03
2022-09-15T09:56:46.219Z,66.50
2022-09-15T09:59:35.994Z,65.76
2022-09-15T10:02:18.304Z,65.58
2022-09-15T10:04:55.494Z,64.84
2022-09-15T10:07:25.914Z,65.38
2022-09-15T10:09:56.224Z,64.82
2022-09-15T10:12:28.548Z,64.93
2022-09-15T10:14:57.770Z,64.57
2022-09-15T10:17:28.278Z,65.00
2022-09-15T10:19:56.850Z,66.12
2022-09-15T10:22:34.814Z,67.35
2022-09-15T10:25:18.246Z,67.19
2022-09-15T10:27:44.761Z,69.78
2022-09-15T10:30:12.392Z,69.79
2022-09-15T10:32:39.797Z,70.02
2022-09-15T10:35:14.112Z,70.07
2022-09-15T10:38:15.804Z,69.79
2022-09-15T10:41:04.533Z,68.23
2022-09-15T10:43:37.611Z,66.77
2022-09-15T10:46:20.696Z,65.64
2022-09-15T10:49:20.523Z,66.06
2022-09-15T10:52:03.735Z,65.44
2022-09-15T10:54:37.521Z,64.19
2022-09-15T10:57:20.499Z,62.98
2022-09-15T11:00:08.466Z,63.03
2022-09-15T11:03:03.399Z,62.25
2022-09-15T11:05:37.753Z,61.15
2022-09-15T11:08:31.967Z,62.77
2022-09-15T11:11:18.503Z,61.32
2022-09-15T11:14:00.993Z,61.39
2022-09-15T11:16:34.059Z,60.21
2022-09-15T11:19:16.026Z,59.25
2022-09-15T11:21:47.712Z,57.63
2022-09-15T11:24:27.405Z,59.06
2022-09-15T11:27:03.030Z,58.09
2022-09-15T11:29:35.512Z,58.23
2022-09-15T11:32:09.865Z,56.90
2022-09-15T11:34:49.104Z,56.18
2022-09-15T11:37:21.263Z,54.62
2022-09-15T11:40:01.879Z,56.32
2022-09-15T11:42:56.124Z,56.24
2022-09-15T11:45:27.502Z,54.10
2022-09-15T11:48:01.487Z,53.71
2022-09-15T11:50:32.725Z,52.59
2022-09-15T11:53:03.765Z,53.03
2022-09-15T11:55:30.216Z,53.19
2022-09-15T11:58:16.345Z,52.69
2022-09-15T12:00:54.351Z,52.26
2022-09-15T12:03:24.997Z,51.82
2022-09-15T12:05:57.478Z,50.18
2022-09-15T12:08:32.427Z,51.44
2022-09-15T12:11:03.462Z,50.14
2022-09-15T12:13:31.346Z,49.19
2022-09-15T12:16:02.061Z,48.68
2022-09-15T12:18:40.979Z,48.71
2022-09-15T12:21:09.262Z,46.64
2022-09-15T12:23:42.034Z,46.69
2022-09-15T12:26:22.100Z,47.04
2022-09-15T12:29:02.488Z,47.42
2022-09-15T12:31:31.105Z,48.54
2022-09-15T12:34:00.368Z,48.43
2022-09-15T12:36:38.871Z,49.40
2022-09-15T12:39:19.098Z,50.38
2022-09-15T12:41:49.116Z,50.71
2022-09-15T12:44:25.576Z,52.53
2022-09-15T12:46:56.379Z,55.24
2022-09-15T12:49:30.095Z,56.03
2022-09-15T12:51:57.678Z,57.33
2022-09-15T12:54:30.929Z,55.97
2022-09-15T12:56:58.595Z,55.69
2022-09-15T12:59:27.950Z,58.29
2022-09-15T13:01:56.188Z,60.86
2022-09-15T13:04:25.355Z,60.82
2022-09-15T13:07:17.147Z,60.59
2022-09-15T13:14:08.053Z,61.14
2022-09-15T13:19:41.984Z,59.91
2022-09-15T13:22:14.349Z,59.61
2022-09-15T13:24:57.701Z,59.08
2022-09-15T13:27:59.152Z,57.75
2022-09-15T13:30:53.901Z,57.41
2022-09-15T13:39:39.098Z,56.26
2022-09-15T13:42:29.768Z,56.07
2022-09-15T13:45:17.546Z,54.00
2022-09-15T13:47:57.800Z,53.26
2022-09-15T13:50:40.258Z,53.65
2022-09-15T13:53:24.319Z,53.34
2022-09-15T13:55:53.772Z,52.62
2022-09-15T14:01:12.348Z,51.87
2022-09-15T14:03:38.875Z,53.66
2022-09-15T14:06:11.750Z,53.66
2022-09-15T14:08:39.917Z,54.80
2022-09-15T14:11:11.112Z,58.05
2022-09-15T14:13:45.451Z,58.38
2022-09-15T14:16:24.198Z,59.43
2022-09-15T14:18:51.823Z,60.65
2022-09-15T14:21:21.282Z,58.77
2022-09-15T14:23:50.577Z,56.98
2022-09-15T14:26:20.936Z,56.60
2022-09-15T14:28:53.472Z,55.75
2022-09-15T14:31:32.252Z,55.40
2022-09-15T14:33:59.627Z,55.52
2022-09-15T14:36:29.792Z,56.14
2022-09-15T14:39:09.019Z,55.31
2022-09-15T14:41:36.672Z,55.61
2022-09-15T14:47:20.029Z,55.26
2022-09-15T14:49:47.484Z,55.29
2022-09-15T14:52:25.025Z,55.83
2022-09-15T14:54:57.840Z,55.77
2022-09-15T14:57:31.108Z,56.16
2022-09-15T15:00:07.010Z,56.12
2022-09-15T15:02:49.780Z,56.79
2022-09-15T15:05:24.758Z,56.42
2022-09-15T15:07:52.200Z,57.02
2022-09-15T15:10:23.417Z,59.05
2022-09-15T15:12:53.782Z,59.28
2022-09-15T15:15:21.169Z,57.69
2022-09-15T15:17:50.114Z,58.14
2022-09-15T15:20:24.004Z,59.24
2022-09-15T15:23:23.199Z,58.81
2022-09-15T15:25:50.172Z,58.88
2022-09-15T15:28:35.896Z,59.14
2022-09-15T15:31:13.200Z,58.80
2022-09-15T15:33:48.171Z,59.05
2022-09-15T15:36:15.106Z,59.05
2022-09-15T15:38:47.542Z,58.54
2022-09-15T15:41:21.400Z,59.29
2022-09-15T15:44:03.164Z,59.28
2022-09-15T15:46:49.178Z,58.46
2022-09-15T15:49:16.309Z,58.77
2022-09-15T15:51:43.087Z,59.88
2022-09-15T15:54:09.816Z,60.72
2022-09-15T15:56:38.053Z,60.18
2022-09-15T15:59:05.797Z,59.86
2022-09-15T16:01:34.406Z,59.73
2022-09-15T16:04:00.906Z,58.28
2022-09-15T16:06:27.571Z,58.98
2022-09-15T16:08:58.205Z,59.68
2022-09-15T16:11:24.798Z,60.33
2022-09-15T16:13:51.245Z,60.75
2022-09-15T16:16:25.907Z,61.14
2022-09-15T16:18:52.932Z,60.72
2022-09-15T16:21:26.444Z,61.32
2022-09-15T16:23:53.100Z,61.51
2022-09-15T16:26:23.213Z,60.10
2022-09-15T16:28:49.858Z,60.67
2022-09-15T16:31:16.481Z,60.40
2022-09-15T16:33:43.178Z,60.60
2022-09-15T16:36:15.520Z,60.52
2022-09-15T16:38:42.762Z,60.36
2022-09-15T16:41:15.152Z,60.44
2022-09-15T16:43:42.543Z,60.92
2022-09-15T16:46:10.992Z,61.05
2022-09-15T16:48:38.535Z,61.49
2022-09-15T16:51:24.919Z,62.30
2022-09-15T16:53:56.140Z,62.74
2022-09-15T16:56:22.734Z,62.76
2022-09-15T16:58:50.498Z,63.44
2022-09-15T17:01:19.591Z,62.94
2022-09-15T17:03:48.079Z,61.49
2022-09-15T17:06:17.760Z,62.03
2022-09-15T17:08:45.423Z,62.16
2022-09-15T17:11:17.300Z,62.34
2022-09-15T17:13:44.753Z,62.83
2022-09-15T17:16:13.829Z,62.59
2022-09-15T17:18:40.419Z,63.00
2022-09-15T17:21:07.352Z,62.52
2022-09-15T17:23:37.337Z,62.86
2022-09-15T17:26:11.656Z,63.12
2022-09-15T17:28:38.470Z,63.04
2022-09-15T17:31:13.442Z,63.21
2022-09-15T17:33:40.246Z,63.13
2022-09-15T17:36:07.147Z,63.47
2022-09-15T17:38:34.190Z,64.25
2022-09-15T17:41:00.740Z,63.91
2022-09-15T17:43:29.494Z,64.27
2022-09-15T17:45:56.549Z,64.90
2022-09-15T17:48:24.330Z,64.97
2022-09-15T17:50:52.670Z,64.59
2022-09-15T17:53:23.545Z,64.99
2022-09-15T17:55:51.149Z,64.71
2022-09-15T17:58:18.084Z,65.21
2022-09-15T18:00:45.332Z,65.01
2022-09-15T18:03:20.976Z,65.15
2022-09-15T18:05:47.729Z,65.68
2022-09-15T18:08:14.358Z,65.70
2022-09-15T18:10:40.910Z,65.50
2022-09-15T18:13:07.492Z,65.42
2022-09-15T18:15:35.282Z,65.82
2022-09-15T18:18:05.382Z,65.17
2022-09-15T18:20:33.094Z,66.18
2022-09-15T18:23:00.239Z,66.43
2022-09-15T18:25:29.845Z,68.79
2022-09-15T18:27:58.661Z,72.28
2022-09-15T18:30:28.231Z,73.25
2022-09-15T18:32:57.623Z,74.73
2022-09-15T18:35:25.218Z,76.05
2022-09-15T18:37:58.103Z,75.47
2022-09-15T18:40:25.912Z,75.99
2022-09-15T18:42:54.142Z,76.65
2022-09-15T18:45:20.874Z,77.65
2022-09-15T18:47:49.165Z,78.13
2022-09-15T18:50:17.184Z,78.18
2022-09-15T18:52:43.771Z,77.12
2022-09-15T18:55:15.186Z,78.14
2022-09-15T18:57:42.788Z,78.07
2022-09-15T19:00:13.509Z,78.05
2022-09-15T19:02:40.494Z,78.38
2022-09-15T19:05:07.843Z,78.16
2022-09-15T19:07:34.344Z,78.25
2022-09-15T19:10:01.707Z,79.24
2022-09-15T19:12:28.307Z,78.61
2022-09-15T19:14:54.846Z,79.01
2022-09-15T19:17:21.574Z,79.31
2022-09-15T19:19:48.145Z,78.67
2022-09-15T19:22:14.693Z,78.09
2022-09-15T19:24:41.109Z,77.85
2022-09-15T19:27:09.713Z,77.66
2022-09-15T19:29:36.789Z,77.80
2022-09-15T19:32:05.926Z,78.61
2022-09-15T19:34:32.505Z,78.61
2022-09-15T19:36:59.107Z,79.51
2022-09-15T19:39:26.034Z,79.68
2022-09-15T19:41:52.636Z,79.33
2022-09-15T19:44:19.148Z,79.28
2022-09-15T19:46:45.763Z,79.93
2022-09-15T19:49:12.704Z,80.16
2022-09-15T19:51:39.459Z,80.17
2022-09-15T19:54:06.305Z,80.18
2022-09-15T19:56:32.850Z,80.31
2022-09-15T19:58:59.581Z,80.30
2022-09-15T20:01:28.705Z,80.19
2022-09-15T20:03:56.888Z,80.24
2022-09-15T20:06:27.623Z,79.89
2022-09-15T20:08:58.214Z,79.94
2022-09-15T20:11:27.181Z,80.54
2022-09-15T20:13:56.446Z,80.42
2022-09-15T20:16:24.082Z,80.06
2022-09-15T20:18:53.763Z,80.04
2022-09-15T20:21:45.836Z,80.80
2022-09-15T20:24:12.538Z,80.66
2022-09-15T20:26:39.032Z,81.32
2022-09-15T20:29:05.555Z,81.40
2022-09-15T20:31:33.078Z,81.15
2022-09-15T20:34:01.183Z,81.93
2022-09-15T20:36:34.234Z,82.02
2022-09-15T20:39:03.261Z,82.23
2022-09-15T20:41:31.896Z,82.25
2022-09-15T20:43:59.187Z,81.20
2022-09-15T20:46:26.105Z,82.10
2022-09-15T20:48:53.914Z,81.17
2022-09-15T20:51:23.504Z,81.18
2022-09-15T20:53:53.611Z,81.09
2022-09-15T20:56:24.701Z,81.43
2022-09-15T20:58:52.735Z,81.36
2022-09-15T21:01:22.758Z,81.25
2022-09-15T21:03:49.473Z,81.59
2022-09-15T21:06:19.933Z,81.32
2022-09-15T21:08:48.995Z,81.23
2022-09-15T21:11:18.511Z,82.09
2022-09-15T21:13:45.397Z,82.13
2022-09-15T21:16:15.545Z,81.85
2022-09-15T21:18:43.674Z,82.12
2022-09-15T21:21:11.918Z,82.02
2022-09-15T21:23:42.649Z,82.38
2022-09-15T21:26:13.022Z,82.72
2022-09-15T21:28:40.206Z,81.88
2022-09-15T21:31:09.853Z,82.29
2022-09-15T21:33:37.755Z,81.78
2022-09-15T21:36:09.800Z,81.28
2022-09-15T21:38:38.250Z,82.21
2022-09-15T21:41:06.148Z,81.95
2022-09-15T21:43:36.037Z,82.25
2022-09-15T21:46:04.792Z,82.02
2022-09-15T21:48:32.618Z,81.80
2022-09-15T21:50:59.901Z,82.24
2022-09-15T21:53:27.775Z,81.87
2022-09-15T21:55:55.174Z,81.79
2022-09-15T21:58:25.902Z,81.88
2022-09-15T22:00:52.947Z,81.82
2022-09-15T22:03:19.459Z,81.57
2022-09-15T22:05:48.204Z,81.99
2022-09-15T22:08:16.188Z,81.75
2022-09-15T22:10:44.342Z,82.29
2022-09-15T22:13:11.685Z,82.05
2022-09-15T22:15:38.211Z,82.42
2022-09-15T22:18:04.920Z,82.69
2022-09-15T22:20:31.398Z,82.63
2022-09-15T22:23:01.195Z,82.37
2022-09-15T22:25:27.680Z,82.63
2022-09-15T22:27:54.137Z,82.59
2022-09-15T22:30:20.596Z,82.42
2022-09-15T22:32:47.324Z,82.44
2022-09-15T22:35:13.966Z,82.14
2022-09-15T22:37:41.553Z,82.22
2022-09-15T22:40:08.577Z,82.19
2022-09-15T22:42:35.099Z,82.26
2022-09-15T22:45:01.713Z,82.70
2022-09-15T22:47:28.336Z,83.06
2022-09-15T22:49:55.288Z,82.94
2022-09-15T22:52:22.859Z,82.71
2022-09-15T22:54:49.344Z,82.12
2022-09-15T22:57:15.819Z,82.60
2022-09-15T22:59:42.546Z,82.69
2022-09-15T23:02:09.097Z,82.28
2022-09-15T23:04:35.615Z,82.08
2022-09-15T23:07:02.150Z,82.26
2022-09-15T23:09:28.639Z,82.69
2022-09-15T23:11:55.471Z,82.50
2022-09-15T23:14:21.931Z,82.18
2022-09-15T23:16:48.437Z,82.39
2022-09-15T23:19:15.065Z,82.86
2022-09-15T23:21:41.597Z,83.63
2022-09-15T23:24:08.735Z,84.18
2022-09-15T23:26:35.307Z,84.40
2022-09-15T23:29:01.752Z,84.23
2022-09-15T23:31:28.364Z,84.16
2022-09-15T23:33:54.859Z,84.37
2022-09-15T23:36:21.855Z,83.77
2022-09-15T23:38:49.181Z,83.00
2022-09-15T23:41:16.849Z,83.22
2022-09-15T23:43:43.431Z,83.56
2022-09-15T23:46:10.312Z,83.44
2022-09-15T23:48:37.159Z,83.41
2022-09-15T23:51:04.369Z,83.41
2022-09-15T23:53:30.940Z,83.62
2022-09-15T23:55:57.390Z,83.65
2022-09-15T23:58:24.030Z,83.58
